Auburn Hills, Michigan
Current Conditions -  °F | °C
As of 3:14 AM on Monday 22 Dec 2014 (Local Time) from KVLL Reporting Station
Haze Haze  
Wind Chill: 29°   Ceiling: Unl
Heat Index: 29°   Visibility: 5mi
Dew Point: 25°   Wind: 0mph
Humidity: 83%   Direction: NA
Pressure: 30.16"   Gusts: NA
Location:  42.67°N, 83.22°W
Report Text: KVLL 220814Z AUTO 00000KT 5SM BR CLR M01/M04 A3016 RMK AO2 T10151040
Loading
Personal Weather Stations






























Interactive Weather Map New forecast layout! Learn more

10-Day Weather Forecast

Advertisements
Track Severe Weather on mobile